sensor_id;sensor_type;location;lat;lon;timestamp;pressure;altitude;pressure_sealevel;temperature;humidity
68077;BME280;54866;53.458;14.540;2022-12-16T00:00:45;100349.13;;;-5.70;93.67
68077;BME280;54866;53.458;14.540;2022-12-16T00:03:15;100345.18;;;-5.70;93.89
68077;BME280;54866;53.458;14.540;2022-12-16T00:05:45;100347.58;;;-5.70;93.95
68077;BME280;54866;53.458;14.540;2022-12-16T00:08:17;100354.39;;;-5.68;93.81
68077;BME280;54866;53.458;14.540;2022-12-16T00:10:46;100358.00;;;-5.68;93.64
68077;BME280;54866;53.458;14.540;2022-12-16T00:13:22;100352.20;;;-5.70;93.38
68077;BME280;54866;53.458;14.540;2022-12-16T00:15:52;100354.98;;;-5.71;93.64
68077;BME280;54866;53.458;14.540;2022-12-16T00:18:22;100356.02;;;-5.71;93.41
68077;BME280;54866;53.458;14.540;2022-12-16T00:20:54;100354.10;;;-5.70;93.63
68077;BME280;54866;53.458;14.540;2022-12-16T00:23:24;100349.60;;;-5.69;93.74
68077;BME280;54866;53.458;14.540;2022-12-16T00:25:54;100351.98;;;-5.67;93.51
68077;BME280;54866;53.458;14.540;2022-12-16T00:28:24;100353.17;;;-5.67;93.38
68077;BME280;54866;53.458;14.540;2022-12-16T00:30:54;100357.73;;;-5.63;93.57
68077;BME280;54866;53.458;14.540;2022-12-16T00:33:25;100361.63;;;-5.60;93.52
68077;BME280;54866;53.458;14.540;2022-12-16T00:35:56;100360.89;;;-5.58;93.37
68077;BME280;54866;53.458;14.540;2022-12-16T00:38:26;100373.71;;;-5.54;93.53
68077;BME280;54866;53.458;14.540;2022-12-16T00:40:56;100373.84;;;-5.52;93.35
68077;BME280;54866;53.458;14.540;2022-12-16T00:43:26;100375.71;;;-5.50;93.36
68077;BME280;54866;53.458;14.540;2022-12-16T00:45:55;100371.25;;;-5.51;93.21
68077;BME280;54866;53.458;14.540;2022-12-16T00:48:25;100373.48;;;-5.50;93.45
68077;BME280;54866;53.458;14.540;2022-12-16T00:50:55;100371.56;;;-5.49;93.20
68077;BME280;54866;53.458;14.540;2022-12-16T00:53:25;100368.41;;;-5.46;93.43
68077;BME280;54866;53.458;14.540;2022-12-16T00:56:03;100372.81;;;-5.43;93.39
68077;BME280;54866;53.458;14.540;2022-12-16T00:58:34;100372.09;;;-5.41;93.33
68077;BME280;54866;53.458;14.540;2022-12-16T01:01:04;100374.88;;;-5.44;93.16
68077;BME280;54866;53.458;14.540;2022-12-16T01:03:34;100371.63;;;-5.43;93.12
68077;BME280;54866;53.458;14.540;2022-12-16T01:06:08;100371.23;;;-5.41;93.19
68077;BME280;54866;53.458;14.540;2022-12-16T01:08:38;100366.39;;;-5.39;93.18
68077;BME280;54866;53.458;14.540;2022-12-16T01:11:10;100373.93;;;-5.39;93.05
68077;BME280;54866;53.458;14.540;2022-12-16T01:13:40;100374.26;;;-5.37;93.21
68077;BME280;54866;53.458;14.540;2022-12-16T01:16:09;100376.99;;;-5.36;93.22
68077;BME280;54866;53.458;14.540;2022-12-16T01:18:39;100386.57;;;-5.34;93.30
68077;BME280;54866;53.458;14.540;2022-12-16T01:21:13;100390.66;;;-5.33;92.96
68077;BME280;54866;53.458;14.540;2022-12-16T01:23:43;100395.64;;;-5.32;93.01
68077;BME280;54866;53.458;14.540;2022-12-16T01:26:16;100399.77;;;-5.32;92.93
68077;BME280;54866;53.458;14.540;2022-12-16T01:28:45;100401.85;;;-5.34;92.71
68077;BME280;54866;53.458;14.540;2022-12-16T01:31:16;100411.27;;;-5.32;93.03
68077;BME280;54866;53.458;14.540;2022-12-16T01:33:46;100409.35;;;-5.31;92.76
68077;BME280;54866;53.458;14.540;2022-12-16T01:36:16;100412.75;;;-5.30;92.88
68077;BME280;54866;53.458;14.540;2022-12-16T01:38:47;100409.31;;;-5.30;92.83
68077;BME280;54866;53.458;14.540;2022-12-16T01:41:17;100405.02;;;-5.29;92.86
68077;BME280;54866;53.458;14.540;2022-12-16T01:43:47;100412.59;;;-5.30;92.67
68077;BME280;54866;53.458;14.540;2022-12-16T01:46:22;100409.52;;;-5.31;92.59
68077;BME280;54866;53.458;14.540;2022-12-16T01:48:56;100409.53;;;-5.31;92.68
68077;BME280;54866;53.458;14.540;2022-12-16T01:51:29;100406.61;;;-5.32;92.70
68077;BME280;54866;53.458;14.540;2022-12-16T01:54:05;100406.08;;;-5.31;92.71
68077;BME280;54866;53.458;14.540;2022-12-16T01:56:38;100405.56;;;-5.31;92.75
68077;BME280;54866;53.458;14.540;2022-12-16T01:59:09;100402.13;;;-5.31;92.74
68077;BME280;54866;53.458;14.540;2022-12-16T02:01:40;100400.41;;;-5.31;92.75
68077;BME280;54866;53.458;14.540;2022-12-16T02:04:09;100395.13;;;-5.33;92.65
68077;BME280;54866;53.458;14.540;2022-12-16T02:06:39;100396.14;;;-5.32;92.54
68077;BME280;54866;53.458;14.540;2022-12-16T02:09:12;100398.38;;;-5.32;92.82
68077;BME280;54866;53.458;14.540;2022-12-16T02:12:06;100390.88;;;-5.35;92.37
68077;BME280;54866;53.458;14.540;2022-12-16T02:14:55;100392.23;;;-5.34;92.62
68077;BME280;54866;53.458;14.540;2022-12-16T02:17:33;100388.79;;;-5.33;92.44
68077;BME280;54866;53.458;14.540;2022-12-16T02:20:42;100390.15;;;-5.33;92.25
68077;BME280;54866;53.458;14.540;2022-12-16T02:26:31;100390.73;;;-5.28;92.39
68077;BME280;54866;53.458;14.540;2022-12-16T02:29:23;100395.64;;;-5.24;92.17
68077;BME280;54866;53.458;14.540;2022-12-16T02:32:06;100390.81;;;-5.22;91.96
68077;BME280;54866;53.458;14.540;2022-12-16T02:34:47;100397.73;;;-5.15;91.96
68077;BME280;54866;53.458;14.540;2022-12-16T02:37:22;100400.90;;;-5.11;91.89
68077;BME280;54866;53.458;14.540;2022-12-16T02:40:00;100400.52;;;-5.09;92.27
68077;BME280;54866;53.458;14.540;2022-12-16T02:42:33;100399.64;;;-5.08;92.35
68077;BME280;54866;53.458;14.540;2022-12-16T02:45:09;100396.89;;;-5.08;92.31
68077;BME280;54866;53.458;14.540;2022-12-16T02:47:40;100393.43;;;-5.07;92.38
68077;BME280;54866;53.458;14.540;2022-12-16T02:50:17;100394.45;;;-5.07;92.87
68077;BME280;54866;53.458;14.540;2022-12-16T02:52:49;100394.15;;;-5.08;92.80
68077;BME280;54866;53.458;14.540;2022-12-16T02:55:19;100390.77;;;-5.10;92.93
68077;BME280;54866;53.458;14.540;2022-12-16T02:58:00;100392.32;;;-5.11;93.07
68077;BME280;54866;53.458;14.540;2022-12-16T03:00:43;100390.92;;;-5.10;92.81
68077;BME280;54866;53.458;14.540;2022-12-16T03:03:19;100392.09;;;-5.08;93.30
68077;BME280;54866;53.458;14.540;2022-12-16T03:05:53;100387.80;;;-5.09;93.22
68077;BME280;54866;53.458;14.540;2022-12-16T03:08:27;100381.66;;;-5.10;93.38
68077;BME280;54866;53.458;14.540;2022-12-16T03:11:02;100383.24;;;-5.12;93.15
68077;BME280;54866;53.458;14.540;2022-12-16T03:13:37;100384.65;;;-5.14;93.45
68077;BME280;54866;53.458;14.540;2022-12-16T03:16:11;100382.81;;;-5.17;93.39
68077;BME280;54866;53.458;14.540;2022-12-16T03:18:43;100382.83;;;-5.17;93.55
68077;BME280;54866;53.458;14.540;2022-12-16T03:21:14;100381.08;;;-5.16;93.62
68077;BME280;54866;53.458;14.540;2022-12-16T03:23:49;100385.32;;;-5.13;93.84
68077;BME280;54866;53.458;14.540;2022-12-16T03:26:24;100390.10;;;-5.12;93.84
68077;BME280;54866;53.458;14.540;2022-12-16T03:29:00;100388.67;;;-5.10;93.71
68077;BME280;54866;53.458;14.540;2022-12-16T03:31:37;100392.11;;;-5.09;93.86
68077;BME280;54866;53.458;14.540;2022-12-16T03:34:13;100391.63;;;-5.11;93.44
68077;BME280;54866;53.458;14.540;2022-12-16T03:36:50;100386.16;;;-5.12;93.82
68077;BME280;54866;53.458;14.540;2022-12-16T03:39:22;100383.27;;;-5.13;93.97
68077;BME280;54866;53.458;14.540;2022-12-16T03:41:54;100383.80;;;-5.14;93.61
68077;BME280;54866;53.458;14.540;2022-12-16T03:44:24;100381.06;;;-5.15;93.91
68077;BME280;54866;53.458;14.540;2022-12-16T03:46:55;100382.03;;;-5.12;93.84
68077;BME280;54866;53.458;14.540;2022-12-16T03:49:24;100381.82;;;-5.10;93.67
68077;BME280;54866;53.458;14.540;2022-12-16T03:51:55;100382.52;;;-5.11;93.56
68077;BME280;54866;53.458;14.540;2022-12-16T03:54:24;100384.48;;;-5.14;93.50
68077;BME280;54866;53.458;14.540;2022-12-16T03:56:54;100385.38;;;-5.17;93.73
68077;BME280;54866;53.458;14.540;2022-12-16T03:59:24;100379.91;;;-5.17;93.73
68077;BME280;54866;53.458;14.540;2022-12-16T04:01:54;100383.01;;;-5.18;93.55
68077;BME280;54866;53.458;14.540;2022-12-16T04:04:24;100381.85;;;-5.20;93.70
68077;BME280;54866;53.458;14.540;2022-12-16T04:06:53;100383.20;;;-5.19;93.81
68077;BME280;54866;53.458;14.540;2022-12-16T04:09:37;100389.22;;;-5.20;94.03
68077;BME280;54866;53.458;14.540;2022-12-16T04:12:08;100388.95;;;-5.25;94.03
68077;BME280;54866;53.458;14.540;2022-12-16T04:14:55;100391.41;;;-5.27;94.13
68077;BME280;54866;53.458;14.540;2022-12-16T04:17:43;100399.87;;;-5.29;94.09
68077;BME280;54866;53.458;14.540;2022-12-16T04:20:33;100399.42;;;-5.33;94.15
68077;BME280;54866;53.458;14.540;2022-12-16T04:23:21;100401.68;;;-5.34;94.18
68077;BME280;54866;53.458;14.540;2022-12-16T04:26:10;100394.86;;;-5.36;94.25
68077;BME280;54866;53.458;14.540;2022-12-16T04:28:40;100396.08;;;-5.38;94.10
68077;BME280;54866;53.458;14.540;2022-12-16T04:31:11;100391.30;;;-5.41;94.33
68077;BME280;54866;53.458;14.540;2022-12-16T04:33:41;100386.89;;;-5.43;94.35
68077;BME280;54866;53.458;14.540;2022-12-16T04:36:28;100391.07;;;-5.46;94.75
68077;BME280;54866;53.458;14.540;2022-12-16T04:39:15;100395.24;;;-5.49;94.80
68077;BME280;54866;53.458;14.540;2022-12-16T04:42:02;100392.69;;;-5.50;95.00
68077;BME280;54866;53.458;14.540;2022-12-16T04:44:49;100394.55;;;-5.49;95.11
68077;BME280;54866;53.458;14.540;2022-12-16T04:47:37;100397.57;;;-5.45;94.98
68077;BME280;54866;53.458;14.540;2022-12-16T04:50:24;100399.94;;;-5.43;95.31
68077;BME280;54866;53.458;14.540;2022-12-16T04:53:11;100403.52;;;-5.42;95.11
68077;BME280;54866;53.458;14.540;2022-12-16T04:55:58;100403.52;;;-5.42;95.15
68077;BME280;54866;53.458;14.540;2022-12-16T04:58:46;100405.11;;;-5.44;95.63
68077;BME280;54866;53.458;14.540;2022-12-16T05:01:33;100403.27;;;-5.47;95.49
68077;BME280;54866;53.458;14.540;2022-12-16T05:04:20;100401.59;;;-5.49;95.63
68077;BME280;54866;53.458;14.540;2022-12-16T05:07:07;100400.19;;;-5.48;95.54
68077;BME280;54866;53.458;14.540;2022-12-16T05:09:54;100400.67;;;-5.45;95.73
68077;BME280;54866;53.458;14.540;2022-12-16T05:12:42;100398.08;;;-5.44;95.87
68077;BME280;54866;53.458;14.540;2022-12-16T05:15:29;100401.80;;;-5.42;95.86
68077;BME280;54866;53.458;14.540;2022-12-16T05:18:16;100407.79;;;-5.41;95.71
68077;BME280;54866;53.458;14.540;2022-12-16T05:21:04;100416.23;;;-5.43;95.81
68077;BME280;54866;53.458;14.540;2022-12-16T05:23:51;100418.02;;;-5.46;96.00
68077;BME280;54866;53.458;14.540;2022-12-16T05:26:40;100420.26;;;-5.47;95.90
68077;BME280;54866;53.458;14.540;2022-12-16T05:29:27;100425.60;;;-5.48;95.74
68077;BME280;54866;53.458;14.540;2022-12-16T05:32:15;100427.16;;;-5.49;95.96
68077;BME280;54866;53.458;14.540;2022-12-16T05:35:02;100427.30;;;-5.46;96.09
68077;BME280;54866;53.458;14.540;2022-12-16T05:37:49;100436.65;;;-5.42;96.03
68077;BME280;54866;53.458;14.540;2022-12-16T05:40:37;100437.34;;;-5.42;96.17
68077;BME280;54866;53.458;14.540;2022-12-16T05:43:24;100441.48;;;-5.43;96.23
68077;BME280;54866;53.458;14.540;2022-12-16T05:46:11;100443.66;;;-5.41;96.32
68077;BME280;54866;53.458;14.540;2022-12-16T05:48:58;100444.35;;;-5.40;96.11
68077;BME280;54866;53.458;14.540;2022-12-16T05:51:45;100445.42;;;-5.43;95.95
68077;BME280;54866;53.458;14.540;2022-12-16T05:54:32;100446.68;;;-5.46;95.72
68077;BME280;54866;53.458;14.540;2022-12-16T05:57:19;100447.75;;;-5.48;95.74
68077;BME280;54866;53.458;14.540;2022-12-16T06:00:09;100446.73;;;-5.49;95.78
68077;BME280;54866;53.458;14.540;2022-12-16T06:02:56;100443.65;;;-5.49;95.82
68077;BME280;54866;53.458;14.540;2022-12-16T06:05:43;100443.09;;;-5.47;95.92
68077;BME280;54866;53.458;14.540;2022-12-16T06:08:31;100450.20;;;-5.41;95.83
68077;BME280;54866;53.458;14.540;2022-12-16T06:11:18;100450.14;;;-5.36;95.72
68077;BME280;54866;53.458;14.540;2022-12-16T06:14:05;100453.77;;;-5.29;95.56
68077;BME280;54866;53.458;14.540;2022-12-16T06:16:52;100460.18;;;-5.22;95.57
68077;BME280;54866;53.458;14.540;2022-12-16T06:19:39;100463.59;;;-5.20;95.45
68077;BME280;54866;53.458;14.540;2022-12-16T06:22:27;100472.05;;;-5.13;95.51
68077;BME280;54866;53.458;14.540;2022-12-16T06:25:14;100474.96;;;-5.12;95.09
68077;BME280;54866;53.458;14.540;2022-12-16T06:28:01;100476.20;;;-5.14;94.94
68077;BME280;54866;53.458;14.540;2022-12-16T06:30:48;100478.67;;;-5.18;94.80
68077;BME280;54866;53.458;14.540;2022-12-16T06:33:35;100479.23;;;-5.22;94.49
68077;BME280;54866;53.458;14.540;2022-12-16T06:36:23;100486.49;;;-5.25;94.74
68077;BME280;54866;53.458;14.540;2022-12-16T06:39:10;100486.52;;;-5.27;94.61
68077;BME280;54866;53.458;14.540;2022-12-16T06:41:57;100481.88;;;-5.26;94.66
68077;BME280;54866;53.458;14.540;2022-12-16T06:44:44;100485.27;;;-5.24;94.71
68077;BME280;54866;53.458;14.540;2022-12-16T06:47:32;100489.19;;;-5.22;94.60
68077;BME280;54866;53.458;14.540;2022-12-16T06:50:19;100498.63;;;-5.22;94.91
68077;BME280;54866;53.458;14.540;2022-12-16T06:53:06;100500.20;;;-5.23;94.62
68077;BME280;54866;53.458;14.540;2022-12-16T06:55:53;100500.89;;;-5.24;94.69
68077;BME280;54866;53.458;14.540;2022-12-16T06:58:55;100505.38;;;-5.24;94.89
68077;BME280;54866;53.458;14.540;2022-12-16T07:01:42;100507.45;;;-5.25;94.73
68077;BME280;54866;53.458;14.540;2022-12-16T07:04:34;100510.71;;;-5.25;94.84
68077;BME280;54866;53.458;14.540;2022-12-16T07:07:21;100507.95;;;-5.24;94.66
68077;BME280;54866;53.458;14.540;2022-12-16T07:10:09;100513.58;;;-5.22;94.84
68077;BME280;54866;53.458;14.540;2022-12-16T07:12:59;100518.52;;;-5.19;94.78
68077;BME280;54866;53.458;14.540;2022-12-16T07:15:47;100524.13;;;-5.15;94.77
68077;BME280;54866;53.458;14.540;2022-12-16T07:18:34;100528.74;;;-5.14;94.48
68077;BME280;54866;53.458;14.540;2022-12-16T07:21:21;100530.64;;;-5.14;94.63
68077;BME280;54866;53.458;14.540;2022-12-16T07:24:08;100537.54;;;-5.16;94.75
68077;BME280;54866;53.458;14.540;2022-12-16T07:26:55;100545.95;;;-5.16;94.66
68077;BME280;54866;53.458;14.540;2022-12-16T07:29:43;100548.69;;;-5.15;94.45
68077;BME280;54866;53.458;14.540;2022-12-16T07:32:30;100549.02;;;-5.14;94.48
68077;BME280;54866;53.458;14.540;2022-12-16T07:35:18;100558.27;;;-5.12;94.35
68077;BME280;54866;53.458;14.540;2022-12-16T07:38:05;100564.80;;;-5.13;94.09
68077;BME280;54866;53.458;14.540;2022-12-16T07:40:52;100567.94;;;-5.16;93.98
68077;BME280;54866;53.458;14.540;2022-12-16T07:43:39;100575.48;;;-5.16;93.93
68077;BME280;54866;53.458;14.540;2022-12-16T07:46:26;100576.50;;;-5.14;94.07
68077;BME280;54866;53.458;14.540;2022-12-16T07:49:14;100581.62;;;-5.12;94.25
68077;BME280;54866;53.458;14.540;2022-12-16T07:52:01;100584.66;;;-5.10;94.04
68077;BME280;54866;53.458;14.540;2022-12-16T07:54:48;100586.20;;;-5.09;93.98
68077;BME280;54866;53.458;14.540;2022-12-16T07:57:49;100591.34;;;-5.09;93.83
68077;BME280;54866;53.458;14.540;2022-12-16T08:00:37;100595.09;;;-5.07;93.94
68077;BME280;54866;53.458;14.540;2022-12-16T08:03:36;100598.34;;;-5.07;93.81
68077;BME280;54866;53.458;14.540;2022-12-16T08:06:23;100600.70;;;-5.02;93.80
68077;BME280;54866;53.458;14.540;2022-12-16T08:09:10;100599.57;;;-4.96;93.85
68077;BME280;54866;53.458;14.540;2022-12-16T08:11:57;100600.74;;;-4.95;93.60
68077;BME280;54866;53.458;14.540;2022-12-16T08:14:44;100609.55;;;-4.97;93.48
68077;BME280;54866;53.458;14.540;2022-12-16T08:17:31;100616.79;;;-4.99;93.46
68077;BME280;54866;53.458;14.540;2022-12-16T08:20:18;100617.69;;;-5.00;93.41
68077;BME280;54866;53.458;14.540;2022-12-16T08:23:06;100617.70;;;-5.02;93.36
68077;BME280;54866;53.458;14.540;2022-12-16T08:25:53;100623.02;;;-5.01;93.18
68077;BME280;54866;53.458;14.540;2022-12-16T08:28:40;100624.40;;;-5.03;93.04
68077;BME280;54866;53.458;14.540;2022-12-16T08:31:27;100630.78;;;-5.03;92.90
68077;BME280;54866;53.458;14.540;2022-12-16T08:34:14;100633.89;;;-5.05;93.20
68077;BME280;54866;53.458;14.540;2022-12-16T08:37:02;100638.04;;;-5.07;93.12
68077;BME280;54866;53.458;14.540;2022-12-16T08:39:49;100644.59;;;-5.08;93.28
68077;BME280;54866;53.458;14.540;2022-12-16T08:42:36;100644.10;;;-5.10;93.32
68077;BME280;54866;53.458;14.540;2022-12-16T08:45:24;100644.45;;;-5.10;93.44
68077;BME280;54866;53.458;14.540;2022-12-16T08:48:11;100648.16;;;-5.07;93.45
68077;BME280;54866;53.458;14.540;2022-12-16T08:51:04;100655.49;;;-5.02;93.64
68077;BME280;54866;53.458;14.540;2022-12-16T08:53:51;100651.71;;;-5.01;93.50
68077;BME280;54866;53.458;14.540;2022-12-16T08:56:38;100652.73;;;-5.01;93.69
68077;BME280;54866;53.458;14.540;2022-12-16T08:59:25;100659.38;;;-4.98;93.65
68077;BME280;54866;53.458;14.540;2022-12-16T09:02:13;100657.46;;;-4.96;93.62
68077;BME280;54866;53.458;14.540;2022-12-16T09:05:00;100660.83;;;-4.92;93.70
68077;BME280;54866;53.458;14.540;2022-12-16T09:07:47;100662.14;;;-4.88;93.52
68077;BME280;54866;53.458;14.540;2022-12-16T09:10:34;100661.61;;;-4.87;93.29
68077;BME280;54866;53.458;14.540;2022-12-16T09:13:21;100663.30;;;-4.86;93.40
68077;BME280;54866;53.458;14.540;2022-12-16T09:16:09;100664.78;;;-4.80;93.54
68077;BME280;54866;53.458;14.540;2022-12-16T09:18:56;100665.93;;;-4.78;93.45
68077;BME280;54866;53.458;14.540;2022-12-16T09:21:43;100664.98;;;-4.72;93.51
68077;BME280;54866;53.458;14.540;2022-12-16T09:24:31;100661.41;;;-4.63;93.53
68077;BME280;54866;53.458;14.540;2022-12-16T09:27:18;100657.99;;;-4.56;93.40
68077;BME280;54866;53.458;14.540;2022-12-16T09:30:07;100659.48;;;-4.51;93.02
68077;BME280;54866;53.458;14.540;2022-12-16T09:32:54;100658.60;;;-4.49;92.95
68077;BME280;54866;53.458;14.540;2022-12-16T09:35:42;100655.52;;;-4.42;92.95
68077;BME280;54866;53.458;14.540;2022-12-16T09:38:29;100662.09;;;-4.33;92.86
68077;BME280;54866;53.458;14.540;2022-12-16T09:41:38;100670.05;;;-4.26;92.60
68077;BME280;54866;53.458;14.540;2022-12-16T09:44:33;100677.25;;;-4.15;92.60
68077;BME280;54866;53.458;14.540;2022-12-16T09:47:30;100674.33;;;-4.14;92.12
68077;BME280;54866;53.458;14.540;2022-12-16T09:50:23;100671.59;;;-4.16;91.90
68077;BME280;54866;53.458;14.540;2022-12-16T09:53:14;100667.91;;;-4.12;92.01
68077;BME280;54866;53.458;14.540;2022-12-16T09:56:04;100670.69;;;-4.05;91.92
68077;BME280;54866;53.458;14.540;2022-12-16T09:58:58;100670.91;;;-3.98;92.04
68077;BME280;54866;53.458;14.540;2022-12-16T10:01:46;100671.38;;;-3.95;91.67
68077;BME280;54866;53.458;14.540;2022-12-16T10:04:34;100675.58;;;-3.90;91.72
68077;BME280;54866;53.458;14.540;2022-12-16T10:07:22;100675.48;;;-3.85;91.52
68077;BME280;54866;53.458;14.540;2022-12-16T10:10:19;100672.11;;;-3.80;91.37
68077;BME280;54866;53.458;14.540;2022-12-16T10:13:16;100672.30;;;-3.73;91.32
68077;BME280;54866;53.458;14.540;2022-12-16T10:16:12;100672.28;;;-3.72;90.97
68077;BME280;54866;53.458;14.540;2022-12-16T10:19:09;100673.43;;;-3.70;90.68
68077;BME280;54866;53.458;14.540;2022-12-16T10:22:04;100671.51;;;-3.68;90.63
68077;BME280;54866;53.458;14.540;2022-12-16T10:24:59;100666.79;;;-3.64;90.73
68077;BME280;54866;53.458;14.540;2022-12-16T10:27:49;100666.52;;;-3.59;90.91
68077;BME280;54866;53.458;14.540;2022-12-16T10:30:38;100664.02;;;-3.54;90.59
68077;BME280;54866;53.458;14.540;2022-12-16T10:33:28;100664.99;;;-3.52;90.56
68077;BME280;54866;53.458;14.540;2022-12-16T10:36:19;100665.83;;;-3.51;90.34
68077;BME280;54866;53.458;14.540;2022-12-16T10:39:18;100668.57;;;-3.50;90.30
68077;BME280;54866;53.458;14.540;2022-12-16T10:42:16;100667.02;;;-3.50;90.20
68077;BME280;54866;53.458;14.540;2022-12-16T10:45:09;100668.35;;;-3.48;90.48
68077;BME280;54866;53.458;14.540;2022-12-16T10:47:59;100666.75;;;-3.45;90.40
68077;BME280;54866;53.458;14.540;2022-12-16T10:50:46;100671.15;;;-3.42;90.46
68077;BME280;54866;53.458;14.540;2022-12-16T10:53:34;100674.64;;;-3.36;90.57
68077;BME280;54866;53.458;14.540;2022-12-16T10:56:33;100668.56;;;-3.34;90.43
68077;BME280;54866;53.458;14.540;2022-12-16T10:59:35;100674.77;;;-3.34;90.34
68077;BME280;54866;53.458;14.540;2022-12-16T11:02:24;100674.74;;;-3.33;90.38
68077;BME280;54866;53.458;14.540;2022-12-16T11:05:30;100678.84;;;-3.31;90.56
68077;BME280;54866;53.458;14.540;2022-12-16T11:08:27;100677.07;;;-3.28;90.50
68077;BME280;54866;53.458;14.540;2022-12-16T11:11:21;100674.09;;;-3.26;90.52
68077;BME280;54866;53.458;14.540;2022-12-16T11:14:25;100671.95;;;-3.23;90.57
68077;BME280;54866;53.458;14.540;2022-12-16T11:17:19;100678.61;;;-3.20;90.58
68077;BME280;54866;53.458;14.540;2022-12-16T11:20:14;100678.98;;;-3.15;90.72
68077;BME280;54866;53.458;14.540;2022-12-16T11:23:17;100676.63;;;-3.09;90.66
68077;BME280;54866;53.458;14.540;2022-12-16T11:26:07;100683.09;;;-3.05;90.25
68077;BME280;54866;53.458;14.540;2022-12-16T11:29:07;100681.83;;;-3.10;89.55
68077;BME280;54866;53.458;14.540;2022-12-16T11:31:59;100677.88;;;-3.10;89.84
68077;BME280;54866;53.458;14.540;2022-12-16T11:34:51;100683.48;;;-3.07;90.15
68077;BME280;54866;53.458;14.540;2022-12-16T11:37:41;100685.23;;;-3.01;90.34
68077;BME280;54866;53.458;14.540;2022-12-16T11:40:29;100689.89;;;-2.93;90.29
68077;BME280;54866;53.458;14.540;2022-12-16T11:43:18;100688.36;;;-2.86;90.21
68077;BME280;54866;53.458;14.540;2022-12-16T11:46:10;100690.50;;;-2.83;89.99
68077;BME280;54866;53.458;14.540;2022-12-16T11:49:00;100686.23;;;-2.76;90.02
68077;BME280;54866;53.458;14.540;2022-12-16T11:51:55;100681.95;;;-2.71;89.93
68077;BME280;54866;53.458;14.540;2022-12-16T11:54:52;100685.58;;;-2.64;89.89
68077;BME280;54866;53.458;14.540;2022-12-16T11:57:44;100685.34;;;-2.60;89.60
68077;BME280;54866;53.458;14.540;2022-12-16T12:00:48;100692.73;;;-2.59;89.62
68077;BME280;54866;53.458;14.540;2022-12-16T12:03:43;100691.36;;;-2.60;89.27
68077;BME280;54866;53.458;14.540;2022-12-16T12:06:34;100694.35;;;-2.63;89.08
68077;BME280;54866;53.458;14.540;2022-12-16T12:09:27;100694.35;;;-2.70;88.97
68077;BME280;54866;53.458;14.540;2022-12-16T12:12:21;100698.86;;;-2.71;89.10
68077;BME280;54866;53.458;14.540;2022-12-16T12:15:17;100695.42;;;-2.65;89.47
68077;BME280;54866;53.458;14.540;2022-12-16T12:18:15;100694.99;;;-2.60;89.36
68077;BME280;54866;53.458;14.540;2022-12-16T12:21:11;100698.70;;;-2.57;89.37
68077;BME280;54866;53.458;14.540;2022-12-16T12:24:06;100701.51;;;-2.52;89.53
68077;BME280;54866;53.458;14.540;2022-12-16T12:27:04;100702.29;;;-2.49;89.35
68077;BME280;54866;53.458;14.540;2022-12-16T12:30:03;100702.50;;;-2.50;89.20
68077;BME280;54866;53.458;14.540;2022-12-16T12:33:00;100702.90;;;-2.53;89.09
68077;BME280;54866;53.458;14.540;2022-12-16T12:35:59;100708.67;;;-2.49;89.29
68077;BME280;54866;53.458;14.540;2022-12-16T12:38:55;100712.94;;;-2.47;89.62
68077;BME280;54866;53.458;14.540;2022-12-16T12:42:09;100714.94;;;-2.44;89.53
68077;BME280;54866;53.458;14.540;2022-12-16T12:45:19;100714.05;;;-2.42;89.40
68077;BME280;54866;53.458;14.540;2022-12-16T12:48:14;100715.15;;;-2.46;89.10
68077;BME280;54866;53.458;14.540;2022-12-16T12:51:06;100716.95;;;-2.49;89.19
68077;BME280;54866;53.458;14.540;2022-12-16T12:54:04;100717.92;;;-2.53;89.09
68077;BME280;54866;53.458;14.540;2022-12-16T12:56:58;100719.05;;;-2.57;89.23
68077;BME280;54866;53.458;14.540;2022-12-16T12:59:51;100719.61;;;-2.58;89.30
68077;BME280;54866;53.458;14.540;2022-12-16T13:02:41;100718.64;;;-2.61;89.13
68077;BME280;54866;53.458;14.540;2022-12-16T13:05:31;100722.83;;;-2.64;89.32
68077;BME280;54866;53.458;14.540;2022-12-16T13:08:44;100721.17;;;-2.67;89.54
68077;BME280;54866;53.458;14.540;2022-12-16T13:11:32;100725.29;;;-2.65;89.77
68077;BME280;54866;53.458;14.540;2022-12-16T13:14:53;100730.31;;;-2.66;89.88
68077;BME280;54866;53.458;14.540;2022-12-16T13:18:18;100731.88;;;-2.67;89.68
68077;BME280;54866;53.458;14.540;2022-12-16T13:21:03;100732.18;;;-2.66;89.75
68077;BME280;54866;53.458;14.540;2022-12-16T13:24:31;100733.95;;;-2.67;89.76
68077;BME280;54866;53.458;14.540;2022-12-16T13:27:20;100736.21;;;-2.68;89.54
68077;BME280;54866;53.458;14.540;2022-12-16T13:30:22;100735.92;;;-2.70;89.81
68077;BME280;54866;53.458;14.540;2022-12-16T13:33:24;100746.42;;;-2.69;89.73
68077;BME280;54866;53.458;14.540;2022-12-16T13:36:14;100749.39;;;-2.71;89.94
68077;BME280;54866;53.458;14.540;2022-12-16T13:39:22;100754.61;;;-2.73;89.86
68077;BME280;54866;53.458;14.540;2022-12-16T13:42:33;100751.16;;;-2.73;90.06
68077;BME280;54866;53.458;14.540;2022-12-16T13:45:35;100753.55;;;-2.72;90.04
68077;BME280;54866;53.458;14.540;2022-12-16T13:48:33;100754.71;;;-2.70;90.22
68077;BME280;54866;53.458;14.540;2022-12-16T13:51:55;100756.55;;;-2.67;90.32
68077;BME280;54866;53.458;14.540;2022-12-16T13:55:00;100760.82;;;-2.66;90.21
68077;BME280;54866;53.458;14.540;2022-12-16T13:57:49;100763.02;;;-2.64;90.04
68077;BME280;54866;53.458;14.540;2022-12-16T14:00:41;100768.82;;;-2.68;89.96
68077;BME280;54866;53.458;14.540;2022-12-16T14:03:39;100780.20;;;-2.68;90.10
68077;BME280;54866;53.458;14.540;2022-12-16T14:06:29;100781.79;;;-2.70;89.96
68077;BME280;54866;53.458;14.540;2022-12-16T14:09:34;100782.64;;;-2.70;90.05
68077;BME280;54866;53.458;14.540;2022-12-16T14:12:32;100787.95;;;-2.68;89.96
68077;BME280;54866;53.458;14.540;2022-12-16T14:15:26;100791.81;;;-2.71;90.16
68077;BME280;54866;53.458;14.540;2022-12-16T14:18:24;100796.55;;;-2.75;89.99